Time;durP1;ratioP1;P1;durP2;ratioP2;P2;SDS_P1;SDS_P2;PMS_P1;PMS_P2;Temp;Humidity;BMP_temperature;BMP_pressure;BME280_temperature;BME280_humidity;BME280_pressure;Samples;Min_cycle;Max_cycle;Signal;HPM_P1;HPM_P2
2021/06/12 00:01:32;;;;;;;11.67;10.80;;;22.50;1.00;;;;;;5070986;28;20877;-69
2021/06/12 00:03:57;;;;;;;11.70;10.70;;;22.40;1.00;;;;;;5087438;28;20183;-68
2021/06/12 00:06:23;;;;;;;11.47;10.47;;;22.40;1.00;;;;;;5072206;28;20540;-68
2021/06/12 00:08:48;;;;;;;12.10;11.20;;;22.40;1.00;;;;;;5072623;28;20613;-68
2021/06/12 00:11:14;;;;;;;11.23;10.40;;;22.40;1.00;;;;;;5085251;28;20195;-68
2021/06/12 00:13:39;;;;;;;12.00;11.00;;;22.40;1.00;;;;;;5086457;28;20171;-69
2021/06/12 00:16:05;;;;;;;11.73;10.70;;;22.50;1.00;;;;;;5072831;28;20184;-68
2021/06/12 00:18:30;;;;;;;11.40;10.40;;;22.40;1.00;;;;;;5086204;28;20200;-68
2021/06/12 00:20:58;;;;;;;11.77;10.77;;;22.40;1.00;;;;;;5092844;28;20183;-67
2021/06/12 00:23:24;;;;;;;12.20;11.00;;;22.30;1.00;;;;;;5085165;28;20257;-68
2021/06/12 00:25:49;;;;;;;12.10;10.87;;;22.20;1.00;;;;;;5072700;28;20437;-67
2021/06/12 00:28:15;;;;;;;11.80;10.80;;;22.30;1.00;;;;;;5070444;28;20463;-67
2021/06/12 00:30:41;;;;;;;10.87;9.97;;;22.30;1.00;;;;;;5072542;28;20673;-68
2021/06/12 00:33:06;;;;;;;11.70;10.60;;;22.20;1.00;;;;;;5069241;28;20187;-66
2021/06/12 00:35:33;;;;;;;11.07;10.17;;;22.30;1.00;;;;;;5064687;28;20183;-66
2021/06/12 00:37:59;;;;;;;11.73;10.83;;;23.90;1.00;;;;;;5072298;28;20656;-67
2021/06/12 00:40:25;;;;;;;10.83;9.80;;;22.20;1.00;;;;;;5072317;28;20468;-66
2021/06/12 00:42:51;;;;;;;10.97;10.07;;;22.10;1.00;;;;;;5071104;28;20664;-66
2021/06/12 00:45:20;;;;;;;11.17;10.07;;;22.20;1.00;;;;;;5072228;28;20179;-67
2021/06/12 00:47:50;;;;;;;11.77;10.77;;;22.10;1.00;;;;;;5065189;28;20450;-68
2021/06/12 00:50:17;;;;;;;10.70;9.90;;;22.10;1.00;;;;;;5072293;28;20465;-68
2021/06/12 00:52:43;;;;;;;11.20;10.20;;;22.20;1.00;;;;;;5069837;28;20461;-68
2021/06/12 00:55:11;;;;;;;12.60;11.50;;;22.10;1.00;;;;;;5072049;28;20429;-67
2021/06/12 00:57:37;;;;;;;15.10;9.77;;;22.10;1.00;;;;;;5071306;28;20245;-67
2021/06/12 01:00:09;;;;;;;10.80;9.90;;;22.10;1.00;;;;;;5078424;28;20825;-67
2021/06/12 01:02:36;;;;;;;10.73;9.67;;;22.10;1.00;;;;;;5084226;28;20275;-68
2021/06/12 01:05:02;;;;;;;10.50;9.53;;;22.10;1.00;;;;;;5072116;28;20430;-66
2021/06/12 01:07:27;;;;;;;10.03;9.13;;;22.10;1.00;;;;;;5071737;28;20458;-68
2021/06/12 01:09:53;;;;;;;10.93;10.10;;;22.00;1.00;;;;;;5071785;28;20518;-66
2021/06/12 01:12:33;;;;;;;10.70;9.70;;;22.10;1.00;;;;;;5066901;28;20199;-68
2021/06/12 01:15:05;;;;;;;11.20;10.30;;;22.10;1.00;;;;;;5071640;28;20194;-68
2021/06/12 01:17:42;;;;;;;10.77;9.87;;;22.00;1.00;;;;;;5071546;28;20510;-68
2021/06/12 01:20:20;;;;;;;10.37;9.50;;;22.00;1.00;;;;;;5071685;28;20429;-68
2021/06/12 01:22:46;;;;;;;11.03;10.07;;;22.00;1.00;;;;;;5068577;28;20532;-67
2021/06/12 01:25:40;;;;;;;9.97;9.07;;;21.90;1.00;;;;;;5071640;28;20839;-70
2021/06/12 01:28:14;;;;;;;9.93;9.00;;;21.90;1.00;;;;;;5068514;28;20238;-68
2021/06/12 01:30:42;;;;;;;9.83;8.93;;;21.90;1.00;;;;;;5068419;28;20469;-68
2021/06/12 01:33:10;;;;;;;10.97;9.87;;;21.90;1.00;;;;;;5071562;28;20449;-69
2021/06/12 01:35:47;;;;;;;11.37;10.47;;;21.80;1.00;;;;;;5078724;28;20485;-67
2021/06/12 01:38:21;;;;;;;10.77;9.97;;;21.70;1.00;;;;;;5084991;28;20465;-68
2021/06/12 01:40:48;;;;;;;10.87;10.00;;;21.70;1.00;;;;;;5070510;28;20501;-67
2021/06/12 01:43:17;;;;;;;10.93;9.93;;;21.60;1.00;;;;;;5068783;28;20461;-68
2021/06/12 01:45:46;;;;;;;10.97;10.07;;;21.60;1.00;;;;;;5070166;28;20471;-68
2021/06/12 01:48:12;;;;;;;10.70;9.90;;;21.50;1.00;;;;;;5070579;28;20433;-67
2021/06/12 01:50:39;;;;;;;10.43;9.63;;;21.50;1.00;;;;;;5070722;28;20784;-68
2021/06/12 01:53:05;;;;;;;11.27;10.10;;;21.50;1.00;;;;;;5076745;28;20506;-67
2021/06/12 01:55:34;;;;;;;10.47;9.57;;;21.40;1.00;;;;;;5077345;28;20437;-66
2021/06/12 01:58:07;;;;;;;11.20;10.30;;;21.30;1.00;;;;;;5068438;28;20446;-67
2021/06/12 02:00:33;;;;;;;10.63;9.73;;;21.30;1.00;;;;;;5066833;28;20798;-64
2021/06/12 02:02:59;;;;;;;10.53;9.53;;;21.20;1.00;;;;;;5069051;28;20496;-68
2021/06/12 02:05:25;;;;;;;10.70;9.57;;;21.10;1.00;;;;;;5069125;28;20460;-68
2021/06/12 02:07:53;;;;;;;11.17;10.27;;;21.20;1.00;;;;;;5070701;28;20449;-67
2021/06/12 02:10:23;;;;;;;11.03;10.03;;;21.10;1.00;;;;;;5067659;28;20465;-68
2021/06/12 02:12:50;;;;;;;10.50;9.60;;;21.20;1.00;;;;;;5070142;28;20412;-68
2021/06/12 02:15:16;;;;;;;10.40;9.50;;;21.20;1.00;;;;;;5076915;28;20449;-64
2021/06/12 02:17:42;;;;;;;10.43;9.53;;;21.20;1.00;;;;;;5081071;28;20616;-65
2021/06/12 02:20:11;;;;;;;10.53;9.73;;;21.10;1.00;;;;;;5070034;28;20461;-64
2021/06/12 02:22:40;;;;;;;12.20;11.30;;;21.10;1.00;;;;;;5070577;28;20525;-64
2021/06/12 02:25:07;;;;;;;12.40;11.30;;;21.10;1.00;;;;;;5069671;28;20504;-64
2021/06/12 02:27:35;;;;;;;12.47;11.17;;;21.10;1.00;;;;;;5068269;28;20488;-64
2021/06/12 02:30:02;;;;;;;10.97;10.17;;;21.00;1.00;;;;;;5072107;28;20464;-66
2021/06/12 02:32:29;;;;;;;10.67;9.77;;;21.00;1.00;;;;;;5051870;28;20454;-65
2021/06/12 02:34:54;;;;;;;10.70;9.67;;;21.00;1.00;;;;;;5069734;28;20592;-64
2021/06/12 02:37:20;;;;;;;10.70;9.60;;;21.00;1.00;;;;;;5076589;28;21042;-64
2021/06/12 02:39:45;;;;;;;10.43;9.63;;;21.10;1.00;;;;;;5072427;28;20191;-64
2021/06/12 02:42:11;;;;;;;11.23;10.33;;;20.90;1.00;;;;;;5069962;28;20193;-64
2021/06/12 02:44:36;;;;;;;11.20;10.20;;;21.00;1.00;;;;;;5070036;28;20198;-65
2021/06/12 02:47:10;;;;;;;10.47;9.57;;;21.00;1.00;;;;;;5069881;28;20218;-65
2021/06/12 02:49:37;;;;;;;10.60;9.80;;;21.00;1.00;;;;;;5075694;28;20198;-64
2021/06/12 02:52:10;;;;;;;11.20;10.13;;;21.10;1.00;;;;;;5069123;28;20469;-64
2021/06/12 02:54:37;;;;;;;11.00;9.70;;;21.00;1.00;;;;;;5069671;28;20510;-64
2021/06/12 02:57:04;;;;;;;10.60;9.70;;;20.90;1.00;;;;;;5069227;28;20946;-64
2021/06/12 02:59:31;;;;;;;10.77;9.90;;;20.90;1.00;;;;;;5071376;28;20453;-66
2021/06/12 03:01:59;;;;;;;12.40;10.77;;;20.90;1.00;;;;;;5072260;28;20449;-66
2021/06/12 03:04:25;;;;;;;10.27;9.33;;;20.90;1.00;;;;;;5079479;28;20494;-64
2021/06/12 03:06:52;;;;;;;10.57;9.67;;;20.90;1.00;;;;;;5068570;28;20437;-64
2021/06/12 03:09:24;;;;;;;11.63;10.03;;;20.90;1.00;;;;;;5068189;28;20454;-63
2021/06/12 03:11:52;;;;;;;11.57;10.53;;;20.90;1.00;;;;;;5068679;28;20476;-63
2021/06/12 03:14:18;;;;;;;11.67;10.57;;;20.80;1.00;;;;;;5069049;28;20498;-65
2021/06/12 03:16:47;;;;;;;10.23;9.33;;;21.00;1.00;;;;;;5069252;28;20822;-65
2021/06/12 03:19:15;;;;;;;12.70;9.90;;;20.90;1.00;;;;;;5074098;28;20603;-63
2021/06/12 03:21:42;;;;;;;10.73;9.83;;;20.90;1.00;;;;;;5069205;28;20457;-65
2021/06/12 03:24:09;;;;;;;10.90;9.90;;;20.90;1.00;;;;;;5068855;28;20753;-63
2021/06/12 03:26:35;;;;;;;10.83;9.93;;;20.80;1.00;;;;;;5068942;28;20434;-63
2021/06/12 03:29:05;;;;;;;10.70;9.70;;;20.90;1.00;;;;;;5072385;28;20594;-66
2021/06/12 03:31:31;;;;;;;11.47;10.43;;;20.90;1.00;;;;;;5069264;28;20473;-67
2021/06/12 03:33:57;;;;;;;10.80;9.87;;;20.90;1.00;;;;;;5069024;28;20444;-65
2021/06/12 03:36:26;;;;;;;10.93;10.00;;;20.90;1.00;;;;;;5069199;28;20434;-67
2021/06/12 03:38:52;;;;;;;11.27;10.37;;;21.00;1.00;;;;;;5071595;28;20444;-67
2021/06/12 03:41:18;;;;;;;11.30;10.50;;;21.00;1.00;;;;;;5069482;28;20437;-68
2021/06/12 03:43:45;;;;;;;11.43;10.53;;;21.00;1.00;;;;;;5070105;28;20529;-68
2021/06/12 03:46:13;;;;;;;11.03;10.17;;;21.00;1.00;;;;;;5068341;28;21132;-68
2021/06/12 03:48:41;;;;;;;11.40;10.33;;;21.10;1.00;;;;;;5075172;28;20445;-69
2021/06/12 03:51:08;;;;;;;10.47;9.50;;;21.20;1.00;;;;;;5089782;28;20471;-69
2021/06/12 03:53:49;;;;;;;10.53;9.63;;;21.30;1.00;;;;;;5089678;28;20461;-68
2021/06/12 03:56:20;;;;;;;11.87;10.97;;;21.40;1.00;;;;;;5089883;28;20545;-68
2021/06/12 03:58:48;;;;;;;11.00;9.87;;;21.50;1.00;;;;;;5089733;28;20435;-71
2021/06/12 04:01:15;;;;;;;11.57;10.67;;;21.50;1.00;;;;;;5088357;28;20536;-68
2021/06/12 04:03:42;;;;;;;10.70;9.90;;;21.60;1.00;;;;;;5089907;28;20452;-69
2021/06/12 04:06:08;;;;;;;10.83;10.03;;;21.70;1.00;;;;;;5088381;28;20432;-69
2021/06/12 04:08:34;;;;;;;10.83;10.10;;;21.80;1.00;;;;;;5074750;28;20810;-69
2021/06/12 04:10:59;;;;;;;10.07;9.37;;;21.80;1.00;;;;;;5069713;28;20465;-69
2021/06/12 04:13:26;;;;;;;10.87;9.87;;;21.90;1.00;;;;;;5069720;28;20184;-69
2021/06/12 04:15:52;;;;;;;10.83;9.83;;;22.10;1.00;;;;;;5069783;28;20168;-68
2021/06/12 04:18:18;;;;;;;11.17;10.07;;;22.00;1.00;;;;;;5072925;28;20442;-69
2021/06/12 04:20:44;;;;;;;10.83;10.03;;;22.30;1.00;;;;;;5071587;28;20529;-67
2021/06/12 04:23:09;;;;;;;10.50;9.70;;;22.00;1.00;;;;;;5072919;28;20524;-67
2021/06/12 04:25:36;;;;;;;10.30;9.50;;;21.90;1.00;;;;;;5072827;28;20293;-69
2021/06/12 04:28:02;;;;;;;10.77;9.90;;;21.90;1.00;;;;;;5072988;28;20221;-69
2021/06/12 04:30:28;;;;;;;11.10;10.20;;;22.10;1.00;;;;;;5071712;28;20457;-68
2021/06/12 04:32:54;;;;;;;11.07;10.07;;;22.10;1.00;;;;;;5075666;28;20429;-67
2021/06/12 04:35:19;;;;;;;11.30;10.40;;;22.00;1.00;;;;;;5093437;28;20727;-69
2021/06/12 04:37:45;;;;;;;10.63;9.80;;;22.10;1.00;;;;;;5093093;28;20211;-68
2021/06/12 04:40:13;;;;;;;10.90;10.00;;;22.10;1.00;;;;;;5093075;28;20266;-69
2021/06/12 04:42:39;;;;;;;11.07;10.17;;;22.30;1.00;;;;;;5092765;28;20183;-67
2021/06/12 04:45:06;;;;;;;10.77;9.87;;;22.30;1.00;;;;;;5072602;28;20434;-66
2021/06/12 04:47:32;;;;;;;11.80;10.63;;;22.30;1.00;;;;;;5072613;28;20462;-68
2021/06/12 04:49:58;;;;;;;10.47;9.73;;;22.40;1.00;;;;;;5072549;28;20438;-67
2021/06/12 04:52:24;;;;;;;9.63;8.83;;;22.40;1.00;;;;;;5072381;28;20501;-66
2021/06/12 04:54:50;;;;;;;10.87;9.97;;;22.40;1.00;;;;;;5072843;28;20175;-66
2021/06/12 04:57:16;;;;;;;10.93;9.87;;;22.40;1.00;;;;;;5072570;28;20180;-66
2021/06/12 04:59:41;;;;;;;10.93;10.03;;;22.30;1.00;;;;;;5072610;28;20507;-68
2021/06/12 05:02:07;;;;;;;11.47;9.57;;;22.20;1.00;;;;;;5072378;28;20202;-67
2021/06/12 05:04:32;;;;;;;11.10;10.30;;;22.30;1.00;;;;;;5072424;28;20581;-67
2021/06/12 05:06:58;;;;;;;10.20;9.40;;;22.40;1.00;;;;;;5072366;28;20660;-66
2021/06/12 05:09:24;;;;;;;9.90;9.20;;;22.50;1.00;;;;;;5072474;28;20179;-68
2021/06/12 05:11:50;;;;;;;10.67;9.77;;;23.60;1.00;;;;;;5072102;28;20522;-65
2021/06/12 05:14:17;;;;;;;10.90;9.90;;;22.60;1.00;;;;;;5072261;28;20552;-67
2021/06/12 05:16:42;;;;;;;11.93;10.90;;;22.40;1.00;;;;;;5072170;28;20172;-67
2021/06/12 05:19:08;;;;;;;11.27;10.47;;;22.40;1.00;;;;;;5072101;28;20747;-67
2021/06/12 05:21:36;;;;;;;11.43;10.43;;;22.50;1.00;;;;;;5072874;28;20176;-68
2021/06/12 05:24:01;;;;;;;11.73;10.77;;;22.50;1.00;;;;;;5092290;28;20195;-67
2021/06/12 05:26:27;;;;;;;12.07;9.90;;;22.50;1.00;;;;;;5091905;28;20428;-66
2021/06/12 05:28:53;;;;;;;12.33;11.23;;;22.50;1.00;;;;;;5091086;28;20237;-66
2021/06/12 05:31:18;;;;;;;10.93;10.13;;;22.60;1.00;;;;;;5091816;28;20229;-66
2021/06/12 05:33:44;;;;;;;11.23;10.33;;;22.60;1.00;;;;;;5072208;28;20175;-69
2021/06/12 05:36:09;;;;;;;10.50;9.70;;;22.60;1.00;;;;;;5071734;28;20257;-66
2021/06/12 05:38:35;;;;;;;11.43;10.53;;;22.60;1.00;;;;;;5073122;28;20248;-65
2021/06/12 05:41:01;;;;;;;11.10;10.00;;;22.60;1.00;;;;;;5091463;28;20175;-66
2021/06/12 05:43:26;;;;;;;11.17;10.37;;;22.60;1.00;;;;;;5088885;28;20189;-68
2021/06/12 05:45:52;;;;;;;11.17;10.23;;;22.70;1.00;;;;;;5091636;28;20265;-67
2021/06/12 05:48:19;;;;;;;10.60;9.73;;;22.80;1.00;;;;;;5091381;28;20179;-67
2021/06/12 05:50:44;;;;;;;10.63;9.73;;;22.90;1.00;;;;;;5081111;28;20195;-67
2021/06/12 05:53:10;;;;;;;11.93;10.83;;;23.00;1.00;;;;;;5071208;28;20444;-67
2021/06/12 05:55:36;;;;;;;10.73;9.93;;;23.00;1.00;;;;;;5086001;28;20211;-67
2021/06/12 05:58:01;;;;;;;11.30;10.30;;;23.20;1.00;;;;;;5091334;28;20175;-66
2021/06/12 06:00:28;;;;;;;10.53;9.80;;;23.40;1.00;;;;;;5076828;28;20226;-68
2021/06/12 06:02:53;;;;;;;10.77;9.77;;;23.40;1.00;;;;;;5069805;28;20194;-68
2021/06/12 06:05:19;;;;;;;10.30;9.40;;;23.40;1.00;;;;;;5080274;28;20494;-67
2021/06/12 06:07:44;;;;;;;10.77;9.97;;;23.40;1.00;;;;;;5089929;28;20210;-68
2021/06/12 06:10:10;;;;;;;10.30;9.60;;;23.60;1.00;;;;;;5090968;28;20760;-68
2021/06/12 06:12:36;;;;;;;10.30;9.50;;;23.90;1.00;;;;;;5091178;28;20632;-67
2021/06/12 06:15:03;;;;;;;10.23;9.33;;;24.10;1.00;;;;;;5090675;28;20175;-67
2021/06/12 06:17:29;;;;;;;10.73;9.93;;;24.60;1.00;;;;;;5091036;28;20238;-67
2021/06/12 06:19:54;;;;;;;9.80;9.10;;;24.80;1.00;;;;;;5091421;28;20515;-67
2021/06/12 06:22:20;;;;;;;10.77;9.97;;;24.90;1.00;;;;;;5090890;28;20252;-68
2021/06/12 06:24:45;;;;;;;16.83;10.17;;;24.90;1.00;;;;;;5091161;28;20183;-69
2021/06/12 06:27:11;;;;;;;9.70;9.10;;;24.90;1.00;;;;;;5090945;28;20363;-68
2021/06/12 06:29:36;;;;;;;10.03;9.13;;;25.00;1.00;;;;;;5090911;28;20243;-69
2021/06/12 06:32:02;;;;;;;10.30;9.40;;;25.10;1.00;;;;;;5090832;28;20203;-69
2021/06/12 06:34:28;;;;;;;10.37;9.47;;;25.20;1.00;;;;;;5091105;28;20674;-69
2021/06/12 06:36:53;;;;;;;12.13;11.13;;;25.50;1.00;;;;;;5091313;28;20425;-68
2021/06/12 06:39:19;;;;;;;11.23;10.43;;;25.70;1.00;;;;;;5090966;28;20652;-68
2021/06/12 06:41:44;;;;;;;10.97;10.07;;;25.90;1.00;;;;;;5072411;28;20188;-69
2021/06/12 06:44:10;;;;;;;11.80;10.90;;;26.30;1.00;;;;;;5070866;28;20211;-68
2021/06/12 06:46:35;;;;;;;10.97;10.17;;;26.40;1.00;;;;;;5069349;28;20190;-67
2021/06/12 06:49:01;;;;;;;11.77;10.87;;;27.00;1.00;;;;;;5081389;28;20195;-67
2021/06/12 06:51:26;;;;;;;12.13;11.20;;;26.10;1.00;;;;;;5091235;28;20210;-67
2021/06/12 06:53:52;;;;;;;11.73;10.83;;;25.90;1.00;;;;;;5086708;28;20182;-68
2021/06/12 06:56:17;;;;;;;11.93;10.93;;;25.60;1.00;;;;;;5090943;28;20251;-68
2021/06/12 06:58:43;;;;;;;10.90;10.10;;;25.30;1.00;;;;;;5090592;28;20177;-67
2021/06/12 07:01:09;;;;;;;10.70;9.90;;;25.10;1.00;;;;;;5085062;28;20194;-66
2021/06/12 07:03:34;;;;;;;11.90;10.70;;;25.40;1.00;;;;;;5090462;28;20225;-66
2021/06/12 07:06:00;;;;;;;11.53;10.63;;;25.60;1.00;;;;;;5090292;28;20194;-66
2021/06/12 07:08:26;;;;;;;11.00;10.10;;;26.00;1.00;;;;;;5090588;28;20619;-68
2021/06/12 07:10:51;;;;;;;15.20;10.60;;;26.00;1.00;;;;;;5090417;28;20229;-68
2021/06/12 07:13:22;;;;;;;9.90;9.13;;;26.10;1.00;;;;;;5090797;28;20191;-68
2021/06/12 07:15:47;;;;;;;9.60;8.90;;;26.20;1.00;;;;;;5088931;28;20182;-69
2021/06/12 07:18:14;;;;;;;9.30;8.50;;;26.30;1.00;;;;;;5090578;28;20423;-68
2021/06/12 07:20:40;;;;;;;9.83;9.03;;;26.00;1.00;;;;;;5090440;28;20218;-67
2021/06/12 07:23:05;;;;;;;8.97;8.27;;;25.80;1.00;;;;;;5090120;28;20529;-67
2021/06/12 07:25:31;;;;;;;9.43;8.63;;;25.70;1.00;;;;;;5072971;28;20434;-68
2021/06/12 07:27:57;;;;;;;8.97;8.27;;;25.70;1.00;;;;;;5069872;28;20211;-66
2021/06/12 07:30:22;;;;;;;7.80;7.07;;;25.60;1.00;;;;;;5069733;28;20277;-67
2021/06/12 07:32:48;;;;;;;8.20;6.67;;;25.40;1.00;;;;;;5086091;28;20175;-68
2021/06/12 07:35:13;;;;;;;7.17;6.67;;;25.60;1.00;;;;;;5090093;28;20178;-68
2021/06/12 07:37:39;;;;;;;8.97;8.07;;;25.70;1.00;;;;;;5090108;28;20179;-68
2021/06/12 07:40:06;;;;;;;8.40;7.73;;;25.90;1.00;;;;;;5090214;28;20570;-68
2021/06/12 07:42:31;;;;;;;8.73;7.93;;;25.70;1.00;;;;;;5090135;28;20271;-69
2021/06/12 07:44:57;;;;;;;8.33;7.63;;;25.60;1.00;;;;;;5073504;28;20496;-68
2021/06/12 07:47:22;;;;;;;8.70;7.87;;;25.60;1.00;;;;;;5069769;28;20233;-70
2021/06/12 07:49:48;;;;;;;9.93;7.60;;;25.60;1.00;;;;;;5069939;28;20272;-68
2021/06/12 07:52:13;;;;;;;9.43;7.80;;;25.70;1.00;;;;;;5071794;28;20213;-68
2021/06/12 07:54:39;;;;;;;9.37;8.50;;;26.00;1.00;;;;;;5072354;28;20210;-68
2021/06/12 07:57:05;;;;;;;10.40;9.60;;;26.20;1.00;;;;;;5073361;28;20187;-68
2021/06/12 07:59:30;;;;;;;8.40;7.70;;;26.50;1.00;;;;;;5073460;28;20176;-69
2021/06/12 08:01:56;;;;;;;8.80;8.00;;;26.60;1.00;;;;;;5073236;28;20437;-68
2021/06/12 08:04:21;;;;;;;9.87;8.97;;;26.70;1.00;;;;;;5073401;28;20188;-69
2021/06/12 08:06:47;;;;;;;9.30;8.60;;;26.20;1.00;;;;;;5073302;28;20226;-67
2021/06/12 08:09:12;;;;;;;10.83;9.73;;;26.40;1.00;;;;;;5073201;28;20192;-68
2021/06/12 08:11:38;;;;;;;9.87;8.93;;;26.40;1.00;;;;;;5072988;28;20215;-69
2021/06/12 08:14:03;;;;;;;9.60;8.70;;;26.20;1.00;;;;;;5072893;28;20183;-69
2021/06/12 08:16:29;;;;;;;9.97;8.93;;;26.30;1.00;;;;;;5078624;28;20852;-70
2021/06/12 08:18:55;;;;;;;11.30;10.40;;;26.30;1.00;;;;;;5093165;28;20733;-68
2021/06/12 08:21:20;;;;;;;10.10;9.20;;;26.30;1.00;;;;;;5093294;28;20197;-69
2021/06/12 08:23:46;;;;;;;10.97;9.70;;;26.30;1.00;;;;;;5093368;28;20214;-69
2021/06/12 08:26:11;;;;;;;13.43;10.43;;;26.60;1.00;;;;;;5093238;28;20187;-68
2021/06/12 08:28:37;;;;;;;11.57;10.47;;;26.90;1.00;;;;;;5087478;28;20276;-68
2021/06/12 08:31:06;;;;;;;11.40;10.30;;;26.90;1.00;;;;;;5072678;28;20207;-69
2021/06/12 08:33:32;;;;;;;10.60;9.70;;;26.90;1.00;;;;;;5085015;28;20185;-69
2021/06/12 08:35:58;;;;;;;12.60;9.80;;;26.50;1.00;;;;;;5093119;28;20453;-68
2021/06/12 08:38:24;;;;;;;12.80;11.60;;;26.60;1.00;;;;;;5091796;28;20949;-68
2021/06/12 08:40:51;;;;;;;10.50;9.60;;;26.50;1.00;;;;;;5091764;28;20277;-67
2021/06/12 08:43:26;;;;;;;9.67;8.70;;;26.40;1.00;;;;;;5082297;28;20175;-69
2021/06/12 08:45:53;;;;;;;10.60;9.80;;;26.40;1.00;;;;;;5072789;28;20481;-68
2021/06/12 08:48:20;;;;;;;10.20;9.40;;;26.50;1.00;;;;;;5072976;28;20958;-69
2021/06/12 08:50:46;;;;;;;11.77;10.80;;;26.40;1.00;;;;;;5072741;28;20850;-69
2021/06/12 08:53:12;;;;;;;10.10;9.17;;;26.40;1.00;;;;;;5072860;28;20525;-69
2021/06/12 08:55:39;;;;;;;10.33;9.33;;;26.70;1.00;;;;;;5072743;28;20180;-70
2021/06/12 08:58:04;;;;;;;10.47;8.73;;;27.20;1.00;;;;;;5072812;28;20191;-68
2021/06/12 09:00:30;;;;;;;9.33;8.47;;;27.40;1.00;;;;;;5072674;28;20742;-69
2021/06/12 09:03:16;;;;;;;11.33;9.07;;;27.00;1.00;;;;;;5071384;28;20187;-68
2021/06/12 09:05:49;;;;;;;10.93;9.50;;;26.60;1.00;;;;;;5072566;28;20279;-68
2021/06/12 09:08:20;;;;;;;10.10;9.20;;;26.50;1.00;;;;;;5070861;28;20487;-69
2021/06/12 09:10:55;;;;;;;9.67;8.57;;;26.60;1.00;;;;;;5073629;28;20451;-68
2021/06/12 09:13:48;;;;;;;10.17;9.27;;;26.70;1.00;;;;;;5092722;28;20622;-69
2021/06/12 09:16:27;;;;;;;9.83;8.90;;;26.60;1.00;;;;;;5092434;28;20494;-69
2021/06/12 09:19:02;;;;;;;9.97;8.80;;;26.60;1.00;;;;;;5080738;28;20441;-68
2021/06/12 09:21:36;;;;;;;8.90;8.10;;;26.90;1.00;;;;;;5072202;28;20441;-69
2021/06/12 09:24:06;;;;;;;9.83;8.93;;;27.30;1.00;;;;;;5072901;28;20952;-69
2021/06/12 09:26:44;;;;;;;8.87;8.03;;;27.30;1.00;;;;;;5072167;28;20482;-69
2021/06/12 09:29:10;;;;;;;9.00;8.10;;;26.90;1.00;;;;;;5085646;28;20452;-69
2021/06/12 09:31:44;;;;;;;8.67;7.87;;;26.70;1.00;;;;;;5071823;28;20443;-68
2021/06/12 09:34:12;;;;;;;8.20;7.47;;;26.90;1.00;;;;;;5070958;28;20179;-69
2021/06/12 09:36:38;;;;;;;7.73;7.00;;;27.00;1.00;;;;;;5070961;28;20441;-68
2021/06/12 09:39:07;;;;;;;7.87;7.17;;;27.20;1.00;;;;;;5072092;28;20787;-67
2021/06/12 09:41:33;;;;;;;9.43;8.40;;;27.30;1.00;;;;;;5078977;28;20244;-68
2021/06/12 09:43:59;;;;;;;8.90;6.93;;;27.50;1.00;;;;;;5071769;28;20437;-70
2021/06/12 09:46:36;;;;;;;6.83;6.27;;;27.70;1.00;;;;;;5070715;28;20305;-70
2021/06/12 09:49:03;;;;;;;7.13;6.53;;;27.80;1.00;;;;;;5091567;28;20210;-70
2021/06/12 09:51:29;;;;;;;7.10;6.40;;;27.70;1.00;;;;;;5092137;28;20477;-69
2021/06/12 09:53:57;;;;;;;6.13;5.63;;;27.50;1.00;;;;;;5090421;28;20837;-69
2021/06/12 09:56:25;;;;;;;5.20;4.70;;;27.40;1.00;;;;;;5089214;28;20187;-69
2021/06/12 09:58:51;;;;;;;4.87;4.47;;;27.20;1.00;;;;;;5082354;28;20437;-69
2021/06/12 10:01:23;;;;;;;6.83;5.23;;;27.10;1.00;;;;;;5071588;28;20429;-69
2021/06/12 10:04:06;;;;;;;5.60;5.10;;;27.30;1.00;;;;;;5071492;28;20437;-68
2021/06/12 10:06:32;;;;;;;5.60;5.10;;;27.60;1.00;;;;;;5071334;28;20412;-69
2021/06/12 10:08:58;;;;;;;6.77;6.27;;;27.90;1.00;;;;;;5071319;28;20927;-69
2021/06/12 10:11:25;;;;;;;6.20;5.60;;;28.10;1.00;;;;;;5071670;28;20698;-68
2021/06/12 10:13:51;;;;;;;7.27;6.60;;;27.70;1.00;;;;;;5069786;28;20449;-69
2021/06/12 10:16:17;;;;;;;10.23;8.63;;;27.60;1.00;;;;;;5071198;28;20931;-70
2021/06/12 10:18:44;;;;;;;8.73;7.93;;;27.90;1.00;;;;;;5070945;28;20187;-70
2021/06/12 10:21:12;;;;;;;9.80;8.80;;;27.80;1.00;;;;;;5070951;28;20446;-70
2021/06/12 10:23:42;;;;;;;10.03;8.37;;;27.70;1.00;;;;;;5087793;28;20484;-68
2021/06/12 10:26:09;;;;;;;13.40;8.87;;;27.30;1.00;;;;;;5091260;28;20452;-69
2021/06/12 10:28:35;;;;;;;9.57;8.67;;;27.50;1.00;;;;;;5091080;28;20469;-68
2021/06/12 10:31:08;;;;;;;10.00;9.00;;;27.80;1.00;;;;;;5091140;28;20779;-69
2021/06/12 10:33:35;;;;;;;11.10;10.10;;;27.40;1.00;;;;;;5066292;28;20438;-68
2021/06/12 10:36:12;;;;;;;10.40;9.50;;;26.90;1.00;;;;;;5072702;28;20448;-68
2021/06/12 10:38:37;;;;;;;10.80;9.90;;;26.70;1.00;;;;;;5091214;28;20436;-68
2021/06/12 10:41:19;;;;;;;10.93;9.87;;;26.50;1.00;;;;;;5091279;28;20452;-68
2021/06/12 10:43:46;;;;;;;10.20;9.27;;;26.40;1.00;;;;;;5091646;28;20181;-69
2021/06/12 10:46:19;;;;;;;11.10;10.03;;;26.50;1.00;;;;;;5087287;28;20425;-68
2021/06/12 10:48:59;;;;;;;11.10;10.10;;;26.90;1.00;;;;;;5070938;28;20441;-69
2021/06/12 10:51:25;;;;;;;10.37;9.37;;;27.30;1.00;;;;;;5070866;28;20491;-69
2021/06/12 10:54:09;;;;;;;10.90;8.87;;;27.30;1.00;;;;;;5075084;28;20429;-68
2021/06/12 10:56:40;;;;;;;10.37;9.37;;;26.90;1.00;;;;;;5091110;28;20182;-68
2021/06/12 10:59:07;;;;;;;9.03;8.23;;;26.50;1.00;;;;;;5091049;28;20895;-69
2021/06/12 11:01:33;;;;;;;9.90;9.10;;;26.30;1.00;;;;;;5090676;28;20407;-68
2021/06/12 11:04:09;;;;;;;11.30;10.20;;;26.20;1.00;;;;;;5089640;28;21059;-69
2021/06/12 11:06:44;;;;;;;11.17;9.37;;;26.00;1.00;;;;;;5090771;28;20440;-69
2021/06/12 11:09:13;;;;;;;10.20;9.40;;;25.80;1.00;;;;;;5089184;28;20819;-69
2021/06/12 11:11:43;;;;;;;9.60;8.80;;;25.90;1.00;;;;;;5090618;28;20506;-68
2021/06/12 11:14:20;;;;;;;10.23;9.33;;;26.30;1.00;;;;;;5089042;28;20429;-69
2021/06/12 11:17:12;;;;;;;11.63;9.80;;;26.70;1.00;;;;;;5070764;28;20456;-68
2021/06/12 11:19:49;;;;;;;11.23;10.00;;;26.80;1.00;;;;;;5070140;28;20437;-69
2021/06/12 11:22:41;;;;;;;10.33;9.33;;;26.60;1.00;;;;;;5070278;28;20412;-71
2021/06/12 11:25:09;;;;;;;8.87;7.97;;;26.80;1.00;;;;;;5070697;28;20465;-69
2021/06/12 11:27:46;;;;;;;10.30;9.30;;;27.10;1.00;;;;;;5071798;28;20461;-68
2021/06/12 11:30:18;;;;;;;11.03;9.90;;;27.30;1.00;;;;;;5074683;28;20537;-69
2021/06/12 11:32:47;;;;;;;10.33;9.30;;;27.40;1.00;;;;;;5074907;28;20457;-69
2021/06/12 11:35:48;;;;;;;9.57;8.60;;;27.50;1.00;;;;;;5074542;28;20438;-68
2021/06/12 11:38:37;;;;;;;10.50;8.93;;;28.00;1.00;;;;;;5073021;28;20439;-68
2021/06/12 11:41:08;;;;;;;10.73;9.80;;;28.00;1.00;;;;;;5074683;28;20447;-68
2021/06/12 11:43:41;;;;;;;9.30;8.47;;;27.60;1.00;;;;;;5074094;28;20441;-69
2021/06/12 11:46:11;;;;;;;9.67;8.67;;;27.60;1.00;;;;;;5074535;28;20473;-69
2021/06/12 11:48:45;;;;;;;9.20;8.27;;;27.80;1.00;;;;;;5073755;28;20465;-68
2021/06/12 11:51:25;;;;;;;10.67;9.60;;;27.30;1.00;;;;;;5074240;28;20552;-68
2021/06/12 11:54:10;;;;;;;11.43;9.80;;;27.20;1.00;;;;;;5076615;28;20440;-69
2021/06/12 11:56:44;;;;;;;9.60;8.63;;;26.90;1.00;;;;;;5094538;28;20432;-68
2021/06/12 11:59:13;;;;;;;12.53;9.30;;;26.70;1.00;;;;;;5094362;28;20426;-67
2021/06/12 12:01:46;;;;;;;10.40;9.40;;;26.90;1.00;;;;;;5094073;28;20497;-68
2021/06/12 12:04:17;;;;;;;9.67;8.80;;;26.60;1.00;;;;;;5093249;28;20440;-68
2021/06/12 12:06:56;;;;;;;9.87;9.03;;;26.20;1.00;;;;;;5074298;28;20831;-67
2021/06/12 12:09:31;;;;;;;10.87;9.80;;;26.40;1.00;;;;;;5074250;28;20433;-68
2021/06/12 12:11:59;;;;;;;9.20;8.40;;;26.30;1.00;;;;;;5073670;28;20525;-69
2021/06/12 12:14:34;;;;;;;9.90;9.03;;;26.40;1.00;;;;;;5073365;28;20433;-70
2021/06/12 12:17:01;;;;;;;8.50;7.80;;;26.40;1.00;;;;;;5078518;28;20533;-69
2021/06/12 12:19:26;;;;;;;9.60;8.20;;;26.20;1.00;;;;;;5093702;28;20431;-69
2021/06/12 12:21:54;;;;;;;9.00;8.13;;;25.80;1.00;;;;;;5093229;28;20428;-70
2021/06/12 12:24:20;;;;;;;8.80;7.90;;;25.50;1.00;;;;;;5088521;28;20278;-68
2021/06/12 12:26:55;;;;;;;9.87;8.97;;;25.20;1.00;;;;;;5073357;28;21036;-67
2021/06/12 12:29:25;;;;;;;9.70;8.23;;;25.00;1.00;;;;;;5073300;28;20464;-71
2021/06/12 12:31:51;;;;;;;8.93;8.03;;;24.90;1.00;;;;;;5073069;28;20915;-66
2021/06/12 12:34:32;;;;;;;8.30;7.50;;;25.00;1.00;;;;;;5073568;28;20429;-69
2021/06/12 12:36:58;;;;;;;7.87;7.17;;;25.20;1.00;;;;;;5072913;28;20194;-68
2021/06/12 12:39:24;;;;;;;7.70;7.10;;;25.10;1.00;;;;;;5089529;28;20428;-67
2021/06/12 12:41:58;;;;;;;7.47;6.77;;;25.20;1.00;;;;;;5092959;28;20421;-67
2021/06/12 12:44:26;;;;;;;6.30;5.80;;;25.50;1.00;;;;;;5088537;28;20429;-69
2021/06/12 12:46:53;;;;;;;6.87;5.70;;;26.20;1.00;;;;;;5073463;28;20965;-68
2021/06/12 12:49:22;;;;;;;7.70;7.00;;;26.50;1.00;;;;;;5072837;28;20533;-69
2021/06/12 12:52:00;;;;;;;6.30;5.70;;;26.30;1.00;;;;;;5091991;28;20442;-68